sensor_id;sensor_type;location;lat;lon;timestamp;P1;durP1;ratioP1;P2;durP2;ratioP2
17604;SDS011;8921;50.964;6.800;2023-01-19T00:01:29;12.70;;;8.30;;
17604;SDS011;8921;50.964;6.800;2023-01-19T00:03:57;12.50;;;9.23;;
17604;SDS011;8921;50.964;6.800;2023-01-19T00:06:26;16.23;;;9.23;;
17604;SDS011;8921;50.964;6.800;2023-01-19T00:08:54;12.37;;;8.10;;
17604;SDS011;8921;50.964;6.800;2023-01-19T00:11:22;13.37;;;9.80;;
17604;SDS011;8921;50.964;6.800;2023-01-19T00:13:51;16.87;;;8.40;;
17604;SDS011;8921;50.964;6.800;2023-01-19T00:16:20;12.63;;;8.00;;
17604;SDS011;8921;50.964;6.800;2023-01-19T00:18:49;14.23;;;8.33;;
17604;SDS011;8921;50.964;6.800;2023-01-19T00:21:16;12.10;;;7.00;;
17604;SDS011;8921;50.964;6.800;2023-01-19T00:23:44;11.47;;;7.57;;
17604;SDS011;8921;50.964;6.800;2023-01-19T00:26:13;11.30;;;7.50;;
17604;SDS011;8921;50.964;6.800;2023-01-19T00:28:44;10.63;;;7.00;;
17604;SDS011;8921;50.964;6.800;2023-01-19T00:31:12;12.10;;;7.97;;
17604;SDS011;8921;50.964;6.800;2023-01-19T00:33:40;10.90;;;7.00;;
17604;SDS011;8921;50.964;6.800;2023-01-19T00:36:08;13.20;;;7.60;;
17604;SDS011;8921;50.964;6.800;2023-01-19T00:38:38;12.73;;;7.50;;
17604;SDS011;8921;50.964;6.800;2023-01-19T00:41:06;12.87;;;6.20;;
17604;SDS011;8921;50.964;6.800;2023-01-19T00:43:36;11.73;;;6.83;;
17604;SDS011;8921;50.964;6.800;2023-01-19T00:46:04;11.60;;;6.40;;
17604;SDS011;8921;50.964;6.800;2023-01-19T00:48:32;13.30;;;6.50;;
17604;SDS011;8921;50.964;6.800;2023-01-19T00:51:01;16.67;;;6.90;;
17604;SDS011;8921;50.964;6.800;2023-01-19T00:53:29;11.90;;;6.70;;
17604;SDS011;8921;50.964;6.800;2023-01-19T00:55:58;9.83;;;5.70;;
17604;SDS011;8921;50.964;6.800;2023-01-19T00:58:26;11.23;;;5.60;;
17604;SDS011;8921;50.964;6.800;2023-01-19T01:00:55;10.47;;;6.90;;
17604;SDS011;8921;50.964;6.800;2023-01-19T01:03:23;9.37;;;6.20;;
17604;SDS011;8921;50.964;6.800;2023-01-19T01:05:51;10.97;;;5.83;;
17604;SDS011;8921;50.964;6.800;2023-01-19T01:08:20;10.30;;;5.90;;
17604;SDS011;8921;50.964;6.800;2023-01-19T01:10:48;8.23;;;5.30;;
17604;SDS011;8921;50.964;6.800;2023-01-19T01:13:16;10.33;;;5.30;;
17604;SDS011;8921;50.964;6.800;2023-01-19T01:15:48;7.60;;;5.10;;
17604;SDS011;8921;50.964;6.800;2023-01-19T01:18:13;13.03;;;6.33;;
17604;SDS011;8921;50.964;6.800;2023-01-19T01:20:41;12.53;;;5.47;;
17604;SDS011;8921;50.964;6.800;2023-01-19T01:23:10;11.53;;;5.47;;
17604;SDS011;8921;50.964;6.800;2023-01-19T01:25:38;8.83;;;5.07;;
17604;SDS011;8921;50.964;6.800;2023-01-19T01:28:06;8.07;;;4.87;;
17604;SDS011;8921;50.964;6.800;2023-01-19T01:30:35;8.10;;;4.87;;
17604;SDS011;8921;50.964;6.800;2023-01-19T01:33:03;10.07;;;5.50;;
17604;SDS011;8921;50.964;6.800;2023-01-19T01:35:31;7.50;;;4.43;;
17604;SDS011;8921;50.964;6.800;2023-01-19T01:37:59;13.73;;;5.20;;
17604;SDS011;8921;50.964;6.800;2023-01-19T01:40:28;11.27;;;6.43;;
17604;SDS011;8921;50.964;6.800;2023-01-19T01:42:56;8.87;;;5.40;;
17604;SDS011;8921;50.964;6.800;2023-01-19T01:45:29;7.53;;;5.40;;
17604;SDS011;8921;50.964;6.800;2023-01-19T01:53:44;8.60;;;5.70;;
17604;SDS011;8921;50.964;6.800;2023-01-19T01:56:13;8.40;;;5.57;;
17604;SDS011;8921;50.964;6.800;2023-01-19T01:58:41;8.40;;;5.00;;
17604;SDS011;8921;50.964;6.800;2023-01-19T02:01:09;8.27;;;5.10;;
17604;SDS011;8921;50.964;6.800;2023-01-19T02:03:56;11.43;;;5.90;;
17604;SDS011;8921;50.964;6.800;2023-01-19T02:06:24;12.03;;;5.50;;
17604;SDS011;8921;50.964;6.800;2023-01-19T02:08:53;11.00;;;6.03;;
17604;SDS011;8921;50.964;6.800;2023-01-19T02:11:39;10.53;;;6.07;;
17604;SDS011;8921;50.964;6.800;2023-01-19T02:14:26;9.67;;;5.93;;
17604;SDS011;8921;50.964;6.800;2023-01-19T02:16:54;10.00;;;5.40;;
17604;SDS011;8921;50.964;6.800;2023-01-19T02:19:23;8.07;;;5.60;;
17604;SDS011;8921;50.964;6.800;2023-01-19T02:21:53;10.00;;;5.93;;
17604;SDS011;8921;50.964;6.800;2023-01-19T02:24:19;8.87;;;6.00;;
17604;SDS011;8921;50.964;6.800;2023-01-19T02:26:47;11.67;;;6.43;;
17604;SDS011;8921;50.964;6.800;2023-01-19T02:29:22;8.87;;;6.33;;
17604;SDS011;8921;50.964;6.800;2023-01-19T02:31:47;9.67;;;6.43;;
17604;SDS011;8921;50.964;6.800;2023-01-19T02:34:16;10.77;;;7.30;;
17604;SDS011;8921;50.964;6.800;2023-01-19T02:39:28;11.97;;;6.63;;
17604;SDS011;8921;50.964;6.800;2023-01-19T02:42:02;10.97;;;7.57;;
17604;SDS011;8921;50.964;6.800;2023-01-19T02:44:32;8.13;;;5.80;;
17604;SDS011;8921;50.964;6.800;2023-01-19T02:47:00;10.03;;;6.77;;
17604;SDS011;8921;50.964;6.800;2023-01-19T02:49:29;9.97;;;6.90;;
17604;SDS011;8921;50.964;6.800;2023-01-19T02:51:57;13.17;;;7.00;;
17604;SDS011;8921;50.964;6.800;2023-01-19T02:57:09;13.00;;;7.27;;
17604;SDS011;8921;50.964;6.800;2023-01-19T03:07:30;9.70;;;6.23;;
17604;SDS011;8921;50.964;6.800;2023-01-19T03:10:14;12.57;;;7.23;;
17604;SDS011;8921;50.964;6.800;2023-01-19T03:12:51;9.83;;;6.17;;
17604;SDS011;8921;50.964;6.800;2023-01-19T03:15:22;9.60;;;6.53;;
17604;SDS011;8921;50.964;6.800;2023-01-19T03:17:49;11.80;;;7.30;;
17604;SDS011;8921;50.964;6.800;2023-01-19T03:20:18;11.20;;;6.23;;
17604;SDS011;8921;50.964;6.800;2023-01-19T03:22:45;11.10;;;7.33;;
17604;SDS011;8921;50.964;6.800;2023-01-19T03:25:13;8.80;;;6.00;;
17604;SDS011;8921;50.964;6.800;2023-01-19T03:27:42;8.50;;;6.33;;
17604;SDS011;8921;50.964;6.800;2023-01-19T03:30:11;13.53;;;6.73;;
17604;SDS011;8921;50.964;6.800;2023-01-19T03:32:43;11.73;;;6.60;;
17604;SDS011;8921;50.964;6.800;2023-01-19T03:35:09;8.97;;;6.40;;
17604;SDS011;8921;50.964;6.800;2023-01-19T03:37:36;10.20;;;7.30;;
17604;SDS011;8921;50.964;6.800;2023-01-19T03:40:04;14.73;;;6.60;;
17604;SDS011;8921;50.964;6.800;2023-01-19T03:42:32;9.57;;;6.33;;
17604;SDS011;8921;50.964;6.800;2023-01-19T03:45:00;12.80;;;7.43;;
17604;SDS011;8921;50.964;6.800;2023-01-19T03:47:29;11.57;;;6.97;;
17604;SDS011;8921;50.964;6.800;2023-01-19T03:49:57;9.33;;;6.83;;
17604;SDS011;8921;50.964;6.800;2023-01-19T03:52:29;12.30;;;6.00;;
17604;SDS011;8921;50.964;6.800;2023-01-19T03:54:56;9.50;;;5.90;;
17604;SDS011;8921;50.964;6.800;2023-01-19T03:57:24;13.70;;;7.27;;
17604;SDS011;8921;50.964;6.800;2023-01-19T03:59:53;14.63;;;7.10;;
17604;SDS011;8921;50.964;6.800;2023-01-19T04:02:21;9.47;;;6.50;;
17604;SDS011;8921;50.964;6.800;2023-01-19T04:04:49;11.13;;;6.40;;
17604;SDS011;8921;50.964;6.800;2023-01-19T04:07:18;10.47;;;6.63;;
17604;SDS011;8921;50.964;6.800;2023-01-19T04:09:46;8.93;;;5.60;;
17604;SDS011;8921;50.964;6.800;2023-01-19T04:12:14;12.47;;;7.37;;
17604;SDS011;8921;50.964;6.800;2023-01-19T04:14:42;11.13;;;6.43;;
17604;SDS011;8921;50.964;6.800;2023-01-19T04:17:11;17.03;;;7.13;;
17604;SDS011;8921;50.964;6.800;2023-01-19T04:19:39;8.37;;;6.00;;
17604;SDS011;8921;50.964;6.800;2023-01-19T04:22:07;8.53;;;5.83;;
17604;SDS011;8921;50.964;6.800;2023-01-19T04:24:35;10.90;;;6.07;;
17604;SDS011;8921;50.964;6.800;2023-01-19T04:27:04;8.87;;;6.00;;
17604;SDS011;8921;50.964;6.800;2023-01-19T04:29:32;10.80;;;6.37;;
17604;SDS011;8921;50.964;6.800;2023-01-19T04:32:00;9.30;;;5.33;;
17604;SDS011;8921;50.964;6.800;2023-01-19T04:34:29;11.10;;;5.93;;
17604;SDS011;8921;50.964;6.800;2023-01-19T04:36:57;9.40;;;5.90;;
17604;SDS011;8921;50.964;6.800;2023-01-19T04:39:25;12.10;;;6.00;;
17604;SDS011;8921;50.964;6.800;2023-01-19T04:41:53;10.20;;;5.57;;
17604;SDS011;8921;50.964;6.800;2023-01-19T04:44:22;10.80;;;6.03;;
17604;SDS011;8921;50.964;6.800;2023-01-19T04:46:50;8.13;;;5.40;;
17604;SDS011;8921;50.964;6.800;2023-01-19T04:49:18;13.60;;;5.90;;
17604;SDS011;8921;50.964;6.800;2023-01-19T04:51:47;11.73;;;5.60;;
17604;SDS011;8921;50.964;6.800;2023-01-19T04:54:18;10.37;;;5.87;;
17604;SDS011;8921;50.964;6.800;2023-01-19T04:56:46;10.10;;;5.70;;
17604;SDS011;8921;50.964;6.800;2023-01-19T04:59:14;10.80;;;6.30;;
17604;SDS011;8921;50.964;6.800;2023-01-19T05:01:42;8.03;;;5.27;;
17604;SDS011;8921;50.964;6.800;2023-01-19T05:04:11;13.87;;;6.50;;
17604;SDS011;8921;50.964;6.800;2023-01-19T05:06:39;9.00;;;6.13;;
17604;SDS011;8921;50.964;6.800;2023-01-19T05:09:07;13.00;;;6.30;;
17604;SDS011;8921;50.964;6.800;2023-01-19T05:11:35;13.37;;;6.60;;
17604;SDS011;8921;50.964;6.800;2023-01-19T05:14:04;10.37;;;6.83;;
17604;SDS011;8921;50.964;6.800;2023-01-19T05:16:32;14.10;;;7.13;;
17604;SDS011;8921;50.964;6.800;2023-01-19T05:19:00;11.30;;;6.57;;
17604;SDS011;8921;50.964;6.800;2023-01-19T05:21:29;12.73;;;7.13;;
17604;SDS011;8921;50.964;6.800;2023-01-19T05:23:57;14.80;;;8.03;;
17604;SDS011;8921;50.964;6.800;2023-01-19T05:26:25;10.77;;;6.90;;
17604;SDS011;8921;50.964;6.800;2023-01-19T05:28:53;18.77;;;9.10;;
17604;SDS011;8921;50.964;6.800;2023-01-19T05:31:22;14.93;;;8.33;;
17604;SDS011;8921;50.964;6.800;2023-01-19T05:33:50;11.90;;;7.73;;
17604;SDS011;8921;50.964;6.800;2023-01-19T05:36:18;19.13;;;9.33;;
17604;SDS011;8921;50.964;6.800;2023-01-19T05:38:47;14.43;;;8.00;;
17604;SDS011;8921;50.964;6.800;2023-01-19T05:41:15;16.17;;;8.67;;
17604;SDS011;8921;50.964;6.800;2023-01-19T05:43:43;17.63;;;9.13;;
17604;SDS011;8921;50.964;6.800;2023-01-19T05:46:11;20.00;;;8.97;;
17604;SDS011;8921;50.964;6.800;2023-01-19T05:48:40;14.70;;;8.30;;
17604;SDS011;8921;50.964;6.800;2023-01-19T05:51:08;23.53;;;11.30;;
17604;SDS011;8921;50.964;6.800;2023-01-19T05:53:36;18.50;;;9.77;;
17604;SDS011;8921;50.964;6.800;2023-01-19T05:56:05;15.97;;;9.13;;
17604;SDS011;8921;50.964;6.800;2023-01-19T05:58:33;21.13;;;10.77;;
17604;SDS011;8921;50.964;6.800;2023-01-19T06:01:02;17.77;;;11.03;;
17604;SDS011;8921;50.964;6.800;2023-01-19T06:03:30;19.77;;;9.97;;
17604;SDS011;8921;50.964;6.800;2023-01-19T06:05:58;20.17;;;10.30;;
17604;SDS011;8921;50.964;6.800;2023-01-19T06:08:26;16.00;;;8.10;;
17604;SDS011;8921;50.964;6.800;2023-01-19T06:10:54;16.77;;;7.93;;
17604;SDS011;8921;50.964;6.800;2023-01-19T06:13:23;15.07;;;8.00;;
17604;SDS011;8921;50.964;6.800;2023-01-19T06:15:59;14.53;;;8.73;;
17604;SDS011;8921;50.964;6.800;2023-01-19T06:18:25;11.20;;;7.87;;
17604;SDS011;8921;50.964;6.800;2023-01-19T06:20:54;11.73;;;7.70;;
17604;SDS011;8921;50.964;6.800;2023-01-19T06:23:22;12.67;;;7.50;;
17604;SDS011;8921;50.964;6.800;2023-01-19T06:25:50;11.87;;;6.80;;
17604;SDS011;8921;50.964;6.800;2023-01-19T06:28:18;10.83;;;6.90;;
17604;SDS011;8921;50.964;6.800;2023-01-19T06:30:47;11.60;;;7.80;;
17604;SDS011;8921;50.964;6.800;2023-01-19T06:33:15;14.10;;;7.97;;
17604;SDS011;8921;50.964;6.800;2023-01-19T06:35:44;12.77;;;7.70;;
17604;SDS011;8921;50.964;6.800;2023-01-19T06:38:12;13.13;;;7.30;;
17604;SDS011;8921;50.964;6.800;2023-01-19T06:40:52;11.67;;;7.60;;
17604;SDS011;8921;50.964;6.800;2023-01-19T06:43:20;13.03;;;8.20;;
17604;SDS011;8921;50.964;6.800;2023-01-19T06:45:48;10.20;;;7.30;;
17604;SDS011;8921;50.964;6.800;2023-01-19T06:48:16;11.13;;;7.23;;
17604;SDS011;8921;50.964;6.800;2023-01-19T06:50:47;11.97;;;8.13;;
17604;SDS011;8921;50.964;6.800;2023-01-19T06:53:18;14.27;;;9.17;;
17604;SDS011;8921;50.964;6.800;2023-01-19T06:55:47;14.60;;;8.73;;
17604;SDS011;8921;50.964;6.800;2023-01-19T06:58:15;14.00;;;9.20;;
17604;SDS011;8921;50.964;6.800;2023-01-19T07:00:47;15.27;;;9.93;;
17604;SDS011;8921;50.964;6.800;2023-01-19T07:03:19;17.23;;;9.67;;
17604;SDS011;8921;50.964;6.800;2023-01-19T07:05:49;15.53;;;9.67;;
17604;SDS011;8921;50.964;6.800;2023-01-19T07:08:18;14.20;;;8.90;;
17604;SDS011;8921;50.964;6.800;2023-01-19T07:10:43;16.37;;;9.53;;
17604;SDS011;8921;50.964;6.800;2023-01-19T07:13:12;16.23;;;10.30;;
17604;SDS011;8921;50.964;6.800;2023-01-19T07:15:40;14.57;;;9.83;;
17604;SDS011;8921;50.964;6.800;2023-01-19T07:18:11;18.33;;;12.13;;
17604;SDS011;8921;50.964;6.800;2023-01-19T07:20:42;14.37;;;9.63;;
17604;SDS011;8921;50.964;6.800;2023-01-19T07:23:11;15.63;;;10.13;;
17604;SDS011;8921;50.964;6.800;2023-01-19T07:25:39;18.93;;;11.07;;
17604;SDS011;8921;50.964;6.800;2023-01-19T07:28:07;17.50;;;10.30;;
17604;SDS011;8921;50.964;6.800;2023-01-19T07:30:35;20.37;;;11.83;;
17604;SDS011;8921;50.964;6.800;2023-01-19T07:33:04;17.40;;;10.57;;
17604;SDS011;8921;50.964;6.800;2023-01-19T07:35:32;17.23;;;11.40;;
17604;SDS011;8921;50.964;6.800;2023-01-19T07:38:00;18.30;;;10.43;;
17604;SDS011;8921;50.964;6.800;2023-01-19T07:40:29;20.00;;;12.27;;
17604;SDS011;8921;50.964;6.800;2023-01-19T07:42:57;21.40;;;12.00;;
17604;SDS011;8921;50.964;6.800;2023-01-19T07:45:25;26.00;;;14.77;;
17604;SDS011;8921;50.964;6.800;2023-01-19T07:47:54;21.20;;;12.23;;
17604;SDS011;8921;50.964;6.800;2023-01-19T07:50:22;20.27;;;12.57;;
17604;SDS011;8921;50.964;6.800;2023-01-19T07:52:50;19.40;;;12.43;;
17604;SDS011;8921;50.964;6.800;2023-01-19T07:55:19;22.73;;;14.40;;
17604;SDS011;8921;50.964;6.800;2023-01-19T07:57:47;21.83;;;14.20;;
17604;SDS011;8921;50.964;6.800;2023-01-19T08:00:19;20.80;;;12.50;;
17604;SDS011;8921;50.964;6.800;2023-01-19T08:02:47;20.57;;;13.63;;
17604;SDS011;8921;50.964;6.800;2023-01-19T08:05:18;21.47;;;12.37;;
17604;SDS011;8921;50.964;6.800;2023-01-19T08:07:46;26.30;;;13.20;;
17604;SDS011;8921;50.964;6.800;2023-01-19T08:10:14;18.07;;;12.03;;
17604;SDS011;8921;50.964;6.800;2023-01-19T08:12:42;22.50;;;14.27;;
17604;SDS011;8921;50.964;6.800;2023-01-19T08:15:11;17.40;;;12.13;;
17604;SDS011;8921;50.964;6.800;2023-01-19T08:17:39;16.90;;;11.70;;
17604;SDS011;8921;50.964;6.800;2023-01-19T08:20:07;16.00;;;11.23;;
17604;SDS011;8921;50.964;6.800;2023-01-19T08:22:36;15.63;;;10.20;;
17604;SDS011;8921;50.964;6.800;2023-01-19T08:25:04;20.97;;;11.27;;
17604;SDS011;8921;50.964;6.800;2023-01-19T08:27:33;18.40;;;11.37;;
17604;SDS011;8921;50.964;6.800;2023-01-19T08:30:01;19.60;;;11.17;;
17604;SDS011;8921;50.964;6.800;2023-01-19T08:32:29;16.17;;;10.43;;
17604;SDS011;8921;50.964;6.800;2023-01-19T08:34:57;18.20;;;10.30;;
17604;SDS011;8921;50.964;6.800;2023-01-19T08:37:26;25.07;;;11.40;;
17604;SDS011;8921;50.964;6.800;2023-01-19T08:39:54;22.50;;;12.10;;
17604;SDS011;8921;50.964;6.800;2023-01-19T08:42:22;22.10;;;13.23;;
17604;SDS011;8921;50.964;6.800;2023-01-19T08:44:50;21.67;;;11.70;;
17604;SDS011;8921;50.964;6.800;2023-01-19T08:47:19;20.37;;;12.03;;
17604;SDS011;8921;50.964;6.800;2023-01-19T08:49:47;19.90;;;12.33;;
17604;SDS011;8921;50.964;6.800;2023-01-19T08:52:15;25.90;;;13.70;;
17604;SDS011;8921;50.964;6.800;2023-01-19T08:54:44;23.87;;;14.43;;
17604;SDS011;8921;50.964;6.800;2023-01-19T08:57:12;21.90;;;13.53;;
17604;SDS011;8921;50.964;6.800;2023-01-19T08:59:40;23.87;;;14.03;;
17604;SDS011;8921;50.964;6.800;2023-01-19T09:02:09;21.20;;;12.80;;
17604;SDS011;8921;50.964;6.800;2023-01-19T09:04:37;26.10;;;14.40;;
17604;SDS011;8921;50.964;6.800;2023-01-19T09:07:05;25.10;;;15.03;;
17604;SDS011;8921;50.964;6.800;2023-01-19T09:09:33;19.97;;;13.10;;
17604;SDS011;8921;50.964;6.800;2023-01-19T09:12:02;21.43;;;13.33;;
17604;SDS011;8921;50.964;6.800;2023-01-19T09:14:30;29.30;;;14.50;;
17604;SDS011;8921;50.964;6.800;2023-01-19T09:16:58;24.20;;;13.57;;
17604;SDS011;8921;50.964;6.800;2023-01-19T09:19:26;22.67;;;12.53;;
17604;SDS011;8921;50.964;6.800;2023-01-19T09:21:55;27.77;;;15.03;;
17604;SDS011;8921;50.964;6.800;2023-01-19T09:24:23;24.10;;;14.60;;
17604;SDS011;8921;50.964;6.800;2023-01-19T09:26:51;23.53;;;13.83;;
17604;SDS011;8921;50.964;6.800;2023-01-19T09:29:19;28.63;;;14.60;;
17604;SDS011;8921;50.964;6.800;2023-01-19T09:31:48;26.07;;;14.43;;
17604;SDS011;8921;50.964;6.800;2023-01-19T09:34:16;28.53;;;15.90;;
17604;SDS011;8921;50.964;6.800;2023-01-19T09:36:45;23.40;;;14.27;;
17604;SDS011;8921;50.964;6.800;2023-01-19T09:39:13;30.33;;;17.80;;
17604;SDS011;8921;50.964;6.800;2023-01-19T09:41:43;21.90;;;14.50;;
17604;SDS011;8921;50.964;6.800;2023-01-19T09:44:12;28.70;;;15.27;;
17604;SDS011;8921;50.964;6.800;2023-01-19T09:46:38;33.43;;;15.67;;
17604;SDS011;8921;50.964;6.800;2023-01-19T09:49:13;31.57;;;13.83;;
17604;SDS011;8921;50.964;6.800;2023-01-19T09:51:42;25.27;;;14.57;;
17604;SDS011;8921;50.964;6.800;2023-01-19T09:54:12;23.33;;;13.63;;
17604;SDS011;8921;50.964;6.800;2023-01-19T09:56:39;24.03;;;14.07;;
17604;SDS011;8921;50.964;6.800;2023-01-19T09:59:16;23.30;;;15.00;;
17604;SDS011;8921;50.964;6.800;2023-01-19T10:04:41;24.63;;;14.37;;
17604;SDS011;8921;50.964;6.800;2023-01-19T10:09:45;28.00;;;14.50;;
17604;SDS011;8921;50.964;6.800;2023-01-19T10:12:29;33.67;;;15.67;;
17604;SDS011;8921;50.964;6.800;2023-01-19T10:17:48;35.17;;;15.23;;
17604;SDS011;8921;50.964;6.800;2023-01-19T10:20:15;27.27;;;15.47;;
17604;SDS011;8921;50.964;6.800;2023-01-19T10:22:41;32.20;;;17.33;;
17604;SDS011;8921;50.964;6.800;2023-01-19T10:25:13;26.77;;;17.40;;
17604;SDS011;8921;50.964;6.800;2023-01-19T10:27:37;30.37;;;18.03;;
17604;SDS011;8921;50.964;6.800;2023-01-19T10:30:06;35.33;;;16.67;;
17604;SDS011;8921;50.964;6.800;2023-01-19T10:32:34;33.37;;;17.00;;
17604;SDS011;8921;50.964;6.800;2023-01-19T10:35:12;31.70;;;17.67;;
17604;SDS011;8921;50.964;6.800;2023-01-19T10:37:36;32.83;;;16.77;;
17604;SDS011;8921;50.964;6.800;2023-01-19T10:42:37;29.03;;;17.07;;
17604;SDS011;8921;50.964;6.800;2023-01-19T10:45:14;30.10;;;16.50;;
17604;SDS011;8921;50.964;6.800;2023-01-19T10:47:45;33.43;;;16.90;;
17604;SDS011;8921;50.964;6.800;2023-01-19T10:50:31;32.30;;;17.13;;
17604;SDS011;8921;50.964;6.800;2023-01-19T10:53:00;29.83;;;16.50;;
17604;SDS011;8921;50.964;6.800;2023-01-19T10:55:30;26.80;;;14.67;;
17604;SDS011;8921;50.964;6.800;2023-01-19T10:57:58;34.40;;;15.30;;
17604;SDS011;8921;50.964;6.800;2023-01-19T11:03:04;32.40;;;15.93;;
17604;SDS011;8921;50.964;6.800;2023-01-19T11:05:32;32.40;;;15.30;;
17604;SDS011;8921;50.964;6.800;2023-01-19T11:08:02;24.60;;;15.70;;
17604;SDS011;8921;50.964;6.800;2023-01-19T11:10:29;26.80;;;15.50;;
17604;SDS011;8921;50.964;6.800;2023-01-19T11:13:11;29.00;;;15.00;;
17604;SDS011;8921;50.964;6.800;2023-01-19T11:20:59;29.13;;;15.00;;
17604;SDS011;8921;50.964;6.800;2023-01-19T11:23:27;29.70;;;15.97;;
17604;SDS011;8921;50.964;6.800;2023-01-19T11:25:56;33.30;;;15.17;;
17604;SDS011;8921;50.964;6.800;2023-01-19T11:28:27;26.10;;;15.47;;
17604;SDS011;8921;50.964;6.800;2023-01-19T11:30:55;26.87;;;16.90;;
17604;SDS011;8921;50.964;6.800;2023-01-19T11:33:31;31.43;;;15.10;;
17604;SDS011;8921;50.964;6.800;2023-01-19T11:36:04;37.47;;;15.50;;
17604;SDS011;8921;50.964;6.800;2023-01-19T11:38:28;26.27;;;14.03;;
17604;SDS011;8921;50.964;6.800;2023-01-19T11:40:57;26.33;;;13.83;;
17604;SDS011;8921;50.964;6.800;2023-01-19T11:43:28;27.13;;;14.23;;
17604;SDS011;8921;50.964;6.800;2023-01-19T11:45:55;22.23;;;13.40;;
17604;SDS011;8921;50.964;6.800;2023-01-19T11:48:26;29.20;;;13.40;;
17604;SDS011;8921;50.964;6.800;2023-01-19T11:50:52;28.03;;;13.67;;
17604;SDS011;8921;50.964;6.800;2023-01-19T11:53:27;23.90;;;12.60;;
17604;SDS011;8921;50.964;6.800;2023-01-19T11:55:59;26.83;;;14.97;;
17604;SDS011;8921;50.964;6.800;2023-01-19T11:58:26;24.53;;;13.00;;
17604;SDS011;8921;50.964;6.800;2023-01-19T12:01:13;23.67;;;12.50;;
17604;SDS011;8921;50.964;6.800;2023-01-19T12:03:57;24.87;;;13.03;;
17604;SDS011;8921;50.964;6.800;2023-01-19T12:06:25;24.33;;;13.20;;
17604;SDS011;8921;50.964;6.800;2023-01-19T12:08:55;31.03;;;13.63;;
17604;SDS011;8921;50.964;6.800;2023-01-19T12:11:28;21.50;;;12.13;;
17604;SDS011;8921;50.964;6.800;2023-01-19T12:13:54;23.80;;;11.90;;
17604;SDS011;8921;50.964;6.800;2023-01-19T12:16:23;20.87;;;12.67;;
17604;SDS011;8921;50.964;6.800;2023-01-19T12:18:52;29.97;;;12.07;;
17604;SDS011;8921;50.964;6.800;2023-01-19T12:21:19;25.90;;;14.20;;
17604;SDS011;8921;50.964;6.800;2023-01-19T12:28:53;32.27;;;13.40;;
17604;SDS011;8921;50.964;6.800;2023-01-19T12:31:21;25.20;;;13.93;;
17604;SDS011;8921;50.964;6.800;2023-01-19T12:33:49;27.93;;;13.37;;
17604;SDS011;8921;50.964;6.800;2023-01-19T12:41:32;21.37;;;12.60;;
17604;SDS011;8921;50.964;6.800;2023-01-19T12:46:37;23.80;;;10.70;;
17604;SDS011;8921;50.964;6.800;2023-01-19T12:49:28;23.93;;;12.40;;
17604;SDS011;8921;50.964;6.800;2023-01-19T12:51:37;23.40;;;13.90;;
17604;SDS011;8921;50.964;6.800;2023-01-19T12:54:06;20.37;;;12.37;;
17604;SDS011;8921;50.964;6.800;2023-01-19T12:56:34;21.57;;;12.50;;
17604;SDS011;8921;50.964;6.800;2023-01-19T12:59:02;24.03;;;12.50;;
17604;SDS011;8921;50.964;6.800;2023-01-19T13:01:30;29.10;;;13.00;;
17604;SDS011;8921;50.964;6.800;2023-01-19T13:09:26;22.00;;;13.07;;
17604;SDS011;8921;50.964;6.800;2023-01-19T13:14:46;19.00;;;12.17;;
17604;SDS011;8921;50.964;6.800;2023-01-19T13:17:20;19.17;;;12.00;;
17604;SDS011;8921;50.964;6.800;2023-01-19T13:19:48;21.60;;;11.80;;
17604;SDS011;8921;50.964;6.800;2023-01-19T13:22:47;25.93;;;13.83;;
17604;SDS011;8921;50.964;6.800;2023-01-19T13:25:11;22.63;;;12.37;;
17604;SDS011;8921;50.964;6.800;2023-01-19T13:27:39;25.60;;;13.20;;
17604;SDS011;8921;50.964;6.800;2023-01-19T13:30:10;19.17;;;10.60;;
17604;SDS011;8921;50.964;6.800;2023-01-19T13:32:39;21.17;;;13.07;;
17604;SDS011;8921;50.964;6.800;2023-01-19T13:35:11;20.17;;;11.43;;
17604;SDS011;8921;50.964;6.800;2023-01-19T13:37:36;30.10;;;12.87;;
17604;SDS011;8921;50.964;6.800;2023-01-19T13:40:06;25.50;;;12.67;;
17604;SDS011;8921;50.964;6.800;2023-01-19T13:42:35;25.73;;;12.53;;
17604;SDS011;8921;50.964;6.800;2023-01-19T13:45:06;22.90;;;13.23;;
17604;SDS011;8921;50.964;6.800;2023-01-19T13:47:44;24.43;;;12.57;;
17604;SDS011;8921;50.964;6.800;2023-01-19T13:50:18;21.33;;;11.17;;
17604;SDS011;8921;50.964;6.800;2023-01-19T13:52:45;21.90;;;11.70;;
17604;SDS011;8921;50.964;6.800;2023-01-19T13:55:14;19.07;;;11.03;;
17604;SDS011;8921;50.964;6.800;2023-01-19T13:57:42;24.57;;;13.07;;
17604;SDS011;8921;50.964;6.800;2023-01-19T14:00:20;18.60;;;10.77;;
17604;SDS011;8921;50.964;6.800;2023-01-19T14:05:33;20.27;;;12.30;;
17604;SDS011;8921;50.964;6.800;2023-01-19T14:10:36;25.43;;;12.20;;
17604;SDS011;8921;50.964;6.800;2023-01-19T14:13:04;23.27;;;11.33;;
17604;SDS011;8921;50.964;6.800;2023-01-19T14:15:32;21.70;;;11.30;;
17604;SDS011;8921;50.964;6.800;2023-01-19T14:18:09;17.90;;;10.93;;
17604;SDS011;8921;50.964;6.800;2023-01-19T14:20:34;24.33;;;12.40;;
17604;SDS011;8921;50.964;6.800;2023-01-19T14:23:02;26.33;;;13.37;;
17604;SDS011;8921;50.964;6.800;2023-01-19T14:25:34;21.17;;;12.43;;
17604;SDS011;8921;50.964;6.800;2023-01-19T14:30:52;19.97;;;12.30;;
17604;SDS011;8921;50.964;6.800;2023-01-19T14:33:39;17.67;;;11.37;;
17604;SDS011;8921;50.964;6.800;2023-01-19T14:36:09;21.35;;;11.10;;
17604;SDS011;8921;50.964;6.800;2023-01-19T14:38:34;18.83;;;10.20;;
17604;SDS011;8921;50.964;6.800;2023-01-19T14:41:03;22.07;;;11.07;;
17604;SDS011;8921;50.964;6.800;2023-01-19T14:43:31;19.70;;;9.90;;
17604;SDS011;8921;50.964;6.800;2023-01-19T14:45:59;20.27;;;10.97;;
17604;SDS011;8921;50.964;6.800;2023-01-19T14:48:28;23.23;;;11.10;;
17604;SDS011;8921;50.964;6.800;2023-01-19T14:50:59;19.50;;;10.60;;
17604;SDS011;8921;50.964;6.800;2023-01-19T14:53:27;19.83;;;10.60;;
17604;SDS011;8921;50.964;6.800;2023-01-19T14:55:56;20.23;;;11.40;;
17604;SDS011;8921;50.964;6.800;2023-01-19T14:58:24;19.30;;;9.60;;
17604;SDS011;8921;50.964;6.800;2023-01-19T15:00:52;16.73;;;9.43;;
17604;SDS011;8921;50.964;6.800;2023-01-19T15:03:21;27.73;;;9.73;;
17604;SDS011;8921;50.964;6.800;2023-01-19T15:05:51;17.73;;;8.83;;
17604;SDS011;8921;50.964;6.800;2023-01-19T15:08:24;14.63;;;9.70;;
17604;SDS011;8921;50.964;6.800;2023-01-19T15:10:50;17.50;;;9.60;;
17604;SDS011;8921;50.964;6.800;2023-01-19T15:13:22;15.00;;;9.40;;
17604;SDS011;8921;50.964;6.800;2023-01-19T15:15:50;15.57;;;8.60;;
17604;SDS011;8921;50.964;6.800;2023-01-19T15:18:19;20.43;;;9.23;;
17604;SDS011;8921;50.964;6.800;2023-01-19T15:20:47;17.53;;;8.53;;
17604;SDS011;8921;50.964;6.800;2023-01-19T15:23:15;19.50;;;11.60;;
17604;SDS011;8921;50.964;6.800;2023-01-19T15:25:43;18.60;;;9.43;;
17604;SDS011;8921;50.964;6.800;2023-01-19T15:28:12;17.60;;;8.80;;
17604;SDS011;8921;50.964;6.800;2023-01-19T15:30:40;14.10;;;8.30;;
17604;SDS011;8921;50.964;6.800;2023-01-19T15:33:20;18.63;;;9.40;;
17604;SDS011;8921;50.964;6.800;2023-01-19T15:35:48;18.73;;;10.03;;
17604;SDS011;8921;50.964;6.800;2023-01-19T15:38:16;17.60;;;8.00;;
17604;SDS011;8921;50.964;6.800;2023-01-19T15:40:45;20.60;;;9.90;;
17604;SDS011;8921;50.964;6.800;2023-01-19T15:43:13;15.27;;;8.90;;
17604;SDS011;8921;50.964;6.800;2023-01-19T15:48:18;17.03;;;10.33;;
17604;SDS011;8921;50.964;6.800;2023-01-19T15:50:47;27.10;;;14.97;;
17604;SDS011;8921;50.964;6.800;2023-01-19T15:53:16;24.50;;;13.73;;
17604;SDS011;8921;50.964;6.800;2023-01-19T15:55:43;14.80;;;9.80;;
17604;SDS011;8921;50.964;6.800;2023-01-19T15:58:11;15.00;;;9.87;;
17604;SDS011;8921;50.964;6.800;2023-01-19T16:00:40;17.53;;;8.80;;
17604;SDS011;8921;50.964;6.800;2023-01-19T16:03:08;14.57;;;9.40;;
17604;SDS011;8921;50.964;6.800;2023-01-19T16:05:36;18.97;;;9.03;;